Terminal Aerodrome Forecast
Issued by NWS

Home | Current Version | Previous Version | Text Only | Print | Product List | Glossary On
Versions: 1 2 3 4 5 6 7 8 9 10 11 12 13 14 15 16 17
000
FTUS41 KBOX 240532
TAFACK
TAF
KACK 240532Z 2406/2506 30007KT P6SM FEW140
     FM240900 24004KT P6SM FEW120
     FM241400 20011KT P6SM OVC250
     FM241700 20015G27KT P6SM OVC100
     FM250000 22017KT P6SM OVC040 WS020/23045KT=

USA.gov is the U.S. government's official web portal to all federal, state and local government web resources and services.